Startpagina
METAR-TAF:

METAR-TAF

Vliegvelden :

Esmeraldas, Ecuador

breedte: 00-58-43N, lengte: 079-37-36W, hoogte: 10 m

Actueel weer

Dit bericht is 47 minuten geleden gemaakt, om 18:00 UTC
Wind 9 kt uit het zuidzuidwesten, variërend tussen het zuiden en het zuidwesten
Temperatuur 28°C
Vochtigheid 79%
Druk 1012 hPa
Zicht 10 km of meer
Gebroken wolken op 2000 ft
Geheel bewolkt op 7000 ft

METAR: SETN 191800Z 20009KT 170V230 9999 BKN020 OVC070 28/24 Q1012 A2988

Tijdstip: 13:47 (18:47 UTC)


TAF: ontbreekt

Waarnemingen en weersverwachtingen van meer dan 4000 vliegvelden (METAR en TAF).

De beschikbare stations zijn de gele en rode punten op de kaart.

Ga met uw muis naar het station om de naam te zien.

Klik dan om waarnemingen en weersverwachtingen te zien.

kaart wijzigen: klik op de groene knoppen met een zwart kruis om in te zoomen, op de groene knop met een streepje om uit te zoomen of op de groene pijlen voor aangrenzende kaarten.


METAR-TAF: